sensor_id;sensor_type;location;lat;lon;timestamp;P1;durP1;ratioP1;P2;durP2;ratioP2
6177;SDS011;3122;48.208;11.174;2023-03-15T00:00:58;1.83;;;1.73;;
6177;SDS011;3122;48.208;11.174;2023-03-15T00:05:59;1.80;;;1.70;;
6177;SDS011;3122;48.208;11.174;2023-03-15T00:11:00;2.90;;;1.97;;
6177;SDS011;3122;48.208;11.174;2023-03-15T00:16:02;4.30;;;1.40;;
6177;SDS011;3122;48.208;11.174;2023-03-15T00:21:03;2.03;;;1.80;;
6177;SDS011;3122;48.208;11.174;2023-03-15T00:26:03;2.00;;;1.73;;
6177;SDS011;3122;48.208;11.174;2023-03-15T00:31:05;2.63;;;1.70;;
6177;SDS011;3122;48.208;11.174;2023-03-15T00:36:16;1.67;;;1.57;;
6177;SDS011;3122;48.208;11.174;2023-03-15T00:41:18;1.67;;;1.57;;
6177;SDS011;3122;48.208;11.174;2023-03-15T00:46:19;1.30;;;1.30;;
6177;SDS011;3122;48.208;11.174;2023-03-15T00:51:20;1.70;;;1.60;;
6177;SDS011;3122;48.208;11.174;2023-03-15T00:56:24;1.40;;;1.30;;
6177;SDS011;3122;48.208;11.174;2023-03-15T01:01:27;1.30;;;1.20;;
6177;SDS011;3122;48.208;11.174;2023-03-15T01:06:28;1.30;;;1.23;;
6177;SDS011;3122;48.208;11.174;2023-03-15T01:11:29;1.00;;;1.00;;
6177;SDS011;3122;48.208;11.174;2023-03-15T01:16:30;1.40;;;1.30;;
6177;SDS011;3122;48.208;11.174;2023-03-15T01:21:30;1.13;;;1.03;;
6177;SDS011;3122;48.208;11.174;2023-03-15T01:26:31;1.63;;;1.23;;
6177;SDS011;3122;48.208;11.174;2023-03-15T01:31:32;1.60;;;1.50;;
6177;SDS011;3122;48.208;11.174;2023-03-15T01:36:32;1.10;;;1.10;;
6177;SDS011;3122;48.208;11.174;2023-03-15T01:41:33;2.30;;;1.60;;
6177;SDS011;3122;48.208;11.174;2023-03-15T01:46:34;1.33;;;1.27;;
6177;SDS011;3122;48.208;11.174;2023-03-15T01:51:44;1.33;;;1.33;;
6177;SDS011;3122;48.208;11.174;2023-03-15T01:56:53;2.10;;;1.90;;
6177;SDS011;3122;48.208;11.174;2023-03-15T02:02:01;2.03;;;1.83;;
6177;SDS011;3122;48.208;11.174;2023-03-15T02:07:03;2.20;;;2.10;;
6177;SDS011;3122;48.208;11.174;2023-03-15T02:12:05;2.37;;;2.17;;
6177;SDS011;3122;48.208;11.174;2023-03-15T02:17:06;2.20;;;2.10;;
6177;SDS011;3122;48.208;11.174;2023-03-15T02:27:32;1.97;;;1.87;;
6177;SDS011;3122;48.208;11.174;2023-03-15T02:32:34;2.10;;;1.93;;
6177;SDS011;3122;48.208;11.174;2023-03-15T02:37:35;3.27;;;2.43;;
6177;SDS011;3122;48.208;11.174;2023-03-15T02:42:35;3.97;;;3.13;;
6177;SDS011;3122;48.208;11.174;2023-03-15T02:47:36;3.40;;;3.10;;
6177;SDS011;3122;48.208;11.174;2023-03-15T02:52:38;4.17;;;3.33;;
6177;SDS011;3122;48.208;11.174;2023-03-15T02:57:39;3.73;;;3.13;;
6177;SDS011;3122;48.208;11.174;2023-03-15T03:02:40;3.43;;;3.00;;
6177;SDS011;3122;48.208;11.174;2023-03-15T03:07:42;5.53;;;3.40;;
6177;SDS011;3122;48.208;11.174;2023-03-15T03:12:42;4.30;;;3.00;;
6177;SDS011;3122;48.208;11.174;2023-03-15T03:17:43;3.60;;;2.90;;
6177;SDS011;3122;48.208;11.174;2023-03-15T03:22:44;5.70;;;3.40;;
6177;SDS011;3122;48.208;11.174;2023-03-15T03:27:45;3.27;;;2.97;;
6177;SDS011;3122;48.208;11.174;2023-03-15T03:32:45;2.83;;;2.60;;
6177;SDS011;3122;48.208;11.174;2023-03-15T03:37:46;4.40;;;2.53;;
6177;SDS011;3122;48.208;11.174;2023-03-15T03:42:46;3.33;;;2.07;;
6177;SDS011;3122;48.208;11.174;2023-03-15T03:47:47;4.90;;;2.10;;
6177;SDS011;3122;48.208;11.174;2023-03-15T03:52:49;2.20;;;1.90;;
6177;SDS011;3122;48.208;11.174;2023-03-15T03:57:50;2.20;;;1.67;;
6177;SDS011;3122;48.208;11.174;2023-03-15T04:02:51;2.00;;;1.40;;
6177;SDS011;3122;48.208;11.174;2023-03-15T04:07:53;2.13;;;1.87;;
6177;SDS011;3122;48.208;11.174;2023-03-15T04:12:54;1.77;;;1.60;;
6177;SDS011;3122;48.208;11.174;2023-03-15T04:17:55;2.80;;;1.80;;
6177;SDS011;3122;48.208;11.174;2023-03-15T04:22:56;2.10;;;1.70;;
6177;SDS011;3122;48.208;11.174;2023-03-15T04:27:56;6.13;;;1.93;;
6177;SDS011;3122;48.208;11.174;2023-03-15T04:32:57;2.83;;;2.10;;
6177;SDS011;3122;48.208;11.174;2023-03-15T04:37:58;1.90;;;1.70;;
6177;SDS011;3122;48.208;11.174;2023-03-15T04:43:00;1.80;;;1.70;;
6177;SDS011;3122;48.208;11.174;2023-03-15T04:48:02;2.40;;;2.00;;
6177;SDS011;3122;48.208;11.174;2023-03-15T04:53:03;4.83;;;1.93;;
6177;SDS011;3122;48.208;11.174;2023-03-15T04:58:03;6.63;;;2.33;;
6177;SDS011;3122;48.208;11.174;2023-03-15T05:03:04;5.13;;;2.50;;
6177;SDS011;3122;48.208;11.174;2023-03-15T05:08:04;5.50;;;2.83;;
6177;SDS011;3122;48.208;11.174;2023-03-15T05:13:05;7.87;;;3.77;;
6177;SDS011;3122;48.208;11.174;2023-03-15T05:18:05;5.37;;;3.07;;
6177;SDS011;3122;48.208;11.174;2023-03-15T05:23:06;5.87;;;3.03;;
6177;SDS011;3122;48.208;11.174;2023-03-15T05:28:06;5.30;;;2.80;;
6177;SDS011;3122;48.208;11.174;2023-03-15T05:33:07;4.60;;;3.00;;
6177;SDS011;3122;48.208;11.174;2023-03-15T05:38:07;8.83;;;2.80;;
6177;SDS011;3122;48.208;11.174;2023-03-15T05:43:08;4.70;;;3.03;;
6177;SDS011;3122;48.208;11.174;2023-03-15T05:48:09;5.13;;;2.97;;
6177;SDS011;3122;48.208;11.174;2023-03-15T05:53:09;8.67;;;2.80;;
6177;SDS011;3122;48.208;11.174;2023-03-15T05:58:10;4.30;;;2.90;;
6177;SDS011;3122;48.208;11.174;2023-03-15T06:03:10;5.17;;;3.60;;
6177;SDS011;3122;48.208;11.174;2023-03-15T06:08:11;8.67;;;4.77;;
6177;SDS011;3122;48.208;11.174;2023-03-15T06:13:12;6.10;;;4.03;;
6177;SDS011;3122;48.208;11.174;2023-03-15T06:18:12;9.53;;;5.50;;
6177;SDS011;3122;48.208;11.174;2023-03-15T06:23:13;7.70;;;5.27;;
6177;SDS011;3122;48.208;11.174;2023-03-15T06:28:14;10.40;;;6.20;;
6177;SDS011;3122;48.208;11.174;2023-03-15T06:33:14;11.10;;;5.30;;
6177;SDS011;3122;48.208;11.174;2023-03-15T06:38:15;11.13;;;6.67;;
6177;SDS011;3122;48.208;11.174;2023-03-15T06:43:16;9.77;;;5.77;;
6177;SDS011;3122;48.208;11.174;2023-03-15T06:48:19;9.43;;;5.70;;
6177;SDS011;3122;48.208;11.174;2023-03-15T06:53:20;9.37;;;6.30;;
6177;SDS011;3122;48.208;11.174;2023-03-15T06:58:21;10.77;;;6.90;;
6177;SDS011;3122;48.208;11.174;2023-03-15T07:03:21;16.70;;;6.70;;
6177;SDS011;3122;48.208;11.174;2023-03-15T07:08:23;12.60;;;7.73;;
6177;SDS011;3122;48.208;11.174;2023-03-15T07:13:24;15.63;;;7.67;;
6177;SDS011;3122;48.208;11.174;2023-03-15T07:18:25;12.83;;;7.50;;
6177;SDS011;3122;48.208;11.174;2023-03-15T07:23:26;14.87;;;7.57;;
6177;SDS011;3122;48.208;11.174;2023-03-15T07:28:27;14.40;;;7.73;;
6177;SDS011;3122;48.208;11.174;2023-03-15T07:33:29;19.53;;;9.30;;
6177;SDS011;3122;48.208;11.174;2023-03-15T07:38:30;16.13;;;7.70;;
6177;SDS011;3122;48.208;11.174;2023-03-15T07:43:32;14.77;;;8.70;;
6177;SDS011;3122;48.208;11.174;2023-03-15T07:48:33;14.13;;;7.63;;
6177;SDS011;3122;48.208;11.174;2023-03-15T07:53:34;26.00;;;13.17;;
6177;SDS011;3122;48.208;11.174;2023-03-15T07:58:34;17.93;;;8.83;;
6177;SDS011;3122;48.208;11.174;2023-03-15T08:03:35;20.57;;;9.80;;
6177;SDS011;3122;48.208;11.174;2023-03-15T08:08:35;15.60;;;8.20;;
6177;SDS011;3122;48.208;11.174;2023-03-15T08:13:36;19.93;;;9.13;;
6177;SDS011;3122;48.208;11.174;2023-03-15T08:18:37;15.70;;;7.00;;
6177;SDS011;3122;48.208;11.174;2023-03-15T08:23:37;16.53;;;8.63;;
6177;SDS011;3122;48.208;11.174;2023-03-15T08:28:38;17.80;;;8.97;;
6177;SDS011;3122;48.208;11.174;2023-03-15T08:33:39;17.07;;;6.80;;
6177;SDS011;3122;48.208;11.174;2023-03-15T08:38:40;12.40;;;5.27;;
6177;SDS011;3122;48.208;11.174;2023-03-15T08:43:40;16.70;;;5.40;;
6177;SDS011;3122;48.208;11.174;2023-03-15T08:48:41;9.37;;;4.73;;
6177;SDS011;3122;48.208;11.174;2023-03-15T08:53:41;10.97;;;4.40;;
6177;SDS011;3122;48.208;11.174;2023-03-15T08:58:42;11.00;;;5.23;;
6177;SDS011;3122;48.208;11.174;2023-03-15T09:03:43;9.10;;;4.70;;
6177;SDS011;3122;48.208;11.174;2023-03-15T09:08:43;9.93;;;4.27;;
6177;SDS011;3122;48.208;11.174;2023-03-15T09:13:44;8.33;;;3.97;;
6177;SDS011;3122;48.208;11.174;2023-03-15T09:18:44;7.43;;;3.53;;
6177;SDS011;3122;48.208;11.174;2023-03-15T09:23:45;5.50;;;4.40;;
6177;SDS011;3122;48.208;11.174;2023-03-15T09:28:45;6.73;;;4.00;;
6177;SDS011;3122;48.208;11.174;2023-03-15T09:33:46;8.90;;;4.20;;
6177;SDS011;3122;48.208;11.174;2023-03-15T09:38:47;8.20;;;3.60;;
6177;SDS011;3122;48.208;11.174;2023-03-15T09:43:51;6.33;;;3.70;;
6177;SDS011;3122;48.208;11.174;2023-03-15T09:54:43;9.37;;;3.33;;
6177;SDS011;3122;48.208;11.174;2023-03-15T09:59:51;10.07;;;3.20;;
6177;SDS011;3122;48.208;11.174;2023-03-15T10:04:54;9.00;;;2.73;;
6177;SDS011;3122;48.208;11.174;2023-03-15T10:10:00;3.40;;;2.63;;
6177;SDS011;3122;48.208;11.174;2023-03-15T10:20:40;6.43;;;2.90;;
6177;SDS011;3122;48.208;11.174;2023-03-15T10:25:46;3.60;;;2.40;;
6177;SDS011;3122;48.208;11.174;2023-03-15T10:30:49;4.87;;;3.30;;
6177;SDS011;3122;48.208;11.174;2023-03-15T10:35:50;3.00;;;2.67;;
6177;SDS011;3122;48.208;11.174;2023-03-15T10:40:52;3.83;;;2.53;;
6177;SDS011;3122;48.208;11.174;2023-03-15T10:56:22;2.73;;;1.57;;
6177;SDS011;3122;48.208;11.174;2023-03-15T11:01:31;2.10;;;1.67;;
6177;SDS011;3122;48.208;11.174;2023-03-15T11:06:41;2.63;;;1.83;;
6177;SDS011;3122;48.208;11.174;2023-03-15T11:17:03;3.67;;;2.53;;
6177;SDS011;3122;48.208;11.174;2023-03-15T11:22:07;2.03;;;1.70;;
6177;SDS011;3122;48.208;11.174;2023-03-15T11:27:12;1.83;;;1.73;;
6177;SDS011;3122;48.208;11.174;2023-03-15T11:32:16;4.43;;;1.80;;
6177;SDS011;3122;48.208;11.174;2023-03-15T11:37:21;2.80;;;1.60;;
6177;SDS011;3122;48.208;11.174;2023-03-15T11:42:32;3.63;;;1.77;;
6177;SDS011;3122;48.208;11.174;2023-03-15T11:47:42;2.37;;;1.70;;
6177;SDS011;3122;48.208;11.174;2023-03-15T11:52:53;3.43;;;1.60;;
6177;SDS011;3122;48.208;11.174;2023-03-15T11:57:54;2.60;;;1.47;;
6177;SDS011;3122;48.208;11.174;2023-03-15T12:02:57;2.60;;;1.50;;
6177;SDS011;3122;48.208;11.174;2023-03-15T12:08:24;1.57;;;1.40;;
6177;SDS011;3122;48.208;11.174;2023-03-15T12:19:19;2.20;;;1.73;;
6177;SDS011;3122;48.208;11.174;2023-03-15T12:24:27;2.40;;;1.67;;
6177;SDS011;3122;48.208;11.174;2023-03-15T12:29:31;1.60;;;1.50;;
6177;SDS011;3122;48.208;11.174;2023-03-15T12:34:52;1.67;;;1.57;;
6177;SDS011;3122;48.208;11.174;2023-03-15T12:45:32;2.90;;;1.60;;
6177;SDS011;3122;48.208;11.174;2023-03-15T12:51:10;2.40;;;1.50;;
6177;SDS011;3122;48.208;11.174;2023-03-15T13:01:17;4.30;;;1.60;;
6177;SDS011;3122;48.208;11.174;2023-03-15T13:06:28;1.40;;;1.30;;
6177;SDS011;3122;48.208;11.174;2023-03-15T13:11:56;3.10;;;1.63;;
6177;SDS011;3122;48.208;11.174;2023-03-15T13:22:45;1.50;;;1.40;;
6177;SDS011;3122;48.208;11.174;2023-03-15T13:27:54;3.67;;;1.57;;
6177;SDS011;3122;48.208;11.174;2023-03-15T13:33:09;5.33;;;1.80;;
6177;SDS011;3122;48.208;11.174;2023-03-15T13:38:32;2.33;;;2.00;;
6177;SDS011;3122;48.208;11.174;2023-03-15T13:43:38;2.07;;;1.50;;
6177;SDS011;3122;48.208;11.174;2023-03-15T13:48:40;1.97;;;1.83;;
6177;SDS011;3122;48.208;11.174;2023-03-15T13:53:41;2.27;;;1.43;;
6177;SDS011;3122;48.208;11.174;2023-03-15T13:58:43;1.97;;;1.70;;
6177;SDS011;3122;48.208;11.174;2023-03-15T14:03:46;2.77;;;1.60;;
6177;SDS011;3122;48.208;11.174;2023-03-15T14:08:55;2.10;;;2.00;;
6177;SDS011;3122;48.208;11.174;2023-03-15T14:14:21;2.17;;;1.30;;
6177;SDS011;3122;48.208;11.174;2023-03-15T14:19:25;1.50;;;1.40;;
6177;SDS011;3122;48.208;11.174;2023-03-15T14:24:29;1.63;;;1.40;;
6177;SDS011;3122;48.208;11.174;2023-03-15T14:29:38;2.53;;;2.23;;
6177;SDS011;3122;48.208;11.174;2023-03-15T14:35:16;1.40;;;1.30;;
6177;SDS011;3122;48.208;11.174;2023-03-15T14:40:30;6.23;;;1.77;;
6177;SDS011;3122;48.208;11.174;2023-03-15T14:45:36;2.40;;;1.40;;
6177;SDS011;3122;48.208;11.174;2023-03-15T14:50:39;2.80;;;1.73;;
6177;SDS011;3122;48.208;11.174;2023-03-15T14:55:41;1.83;;;1.60;;
6177;SDS011;3122;48.208;11.174;2023-03-15T15:00:42;1.50;;;1.40;;
6177;SDS011;3122;48.208;11.174;2023-03-15T15:05:45;3.30;;;1.60;;
6177;SDS011;3122;48.208;11.174;2023-03-15T15:10:46;2.80;;;2.00;;
6177;SDS011;3122;48.208;11.174;2023-03-15T15:15:48;1.80;;;1.70;;
6177;SDS011;3122;48.208;11.174;2023-03-15T15:20:50;2.57;;;1.60;;
6177;SDS011;3122;48.208;11.174;2023-03-15T15:25:54;2.10;;;1.90;;
6177;SDS011;3122;48.208;11.174;2023-03-15T15:30:57;2.50;;;2.00;;
6177;SDS011;3122;48.208;11.174;2023-03-15T15:35:58;3.90;;;2.60;;
6177;SDS011;3122;48.208;11.174;2023-03-15T15:40:59;2.50;;;2.07;;
6177;SDS011;3122;48.208;11.174;2023-03-15T15:45:59;3.73;;;2.20;;
6177;SDS011;3122;48.208;11.174;2023-03-15T15:51:00;3.17;;;2.43;;
6177;SDS011;3122;48.208;11.174;2023-03-15T15:56:01;4.10;;;2.00;;
6177;SDS011;3122;48.208;11.174;2023-03-15T16:01:01;2.87;;;2.10;;
6177;SDS011;3122;48.208;11.174;2023-03-15T16:06:02;4.70;;;1.80;;
6177;SDS011;3122;48.208;11.174;2023-03-15T16:11:03;3.00;;;1.70;;
6177;SDS011;3122;48.208;11.174;2023-03-15T16:16:05;3.00;;;1.60;;
6177;SDS011;3122;48.208;11.174;2023-03-15T16:21:22;3.07;;;2.10;;
6177;SDS011;3122;48.208;11.174;2023-03-15T16:26:28;3.00;;;2.27;;
6177;SDS011;3122;48.208;11.174;2023-03-15T16:31:30;3.87;;;2.40;;
6177;SDS011;3122;48.208;11.174;2023-03-15T16:36:33;2.73;;;2.23;;
6177;SDS011;3122;48.208;11.174;2023-03-15T16:41:42;4.97;;;2.47;;
6177;SDS011;3122;48.208;11.174;2023-03-15T16:46:43;4.57;;;2.10;;
6177;SDS011;3122;48.208;11.174;2023-03-15T16:51:44;4.00;;;2.57;;
6177;SDS011;3122;48.208;11.174;2023-03-15T16:56:48;2.80;;;2.40;;
6177;SDS011;3122;48.208;11.174;2023-03-15T17:01:48;4.07;;;2.73;;
6177;SDS011;3122;48.208;11.174;2023-03-15T17:06:49;4.20;;;2.67;;
6177;SDS011;3122;48.208;11.174;2023-03-15T17:11:50;4.73;;;2.53;;
6177;SDS011;3122;48.208;11.174;2023-03-15T17:16:51;3.80;;;2.73;;
6177;SDS011;3122;48.208;11.174;2023-03-15T17:21:52;5.50;;;3.90;;
6177;SDS011;3122;48.208;11.174;2023-03-15T17:26:52;6.40;;;2.80;;
6177;SDS011;3122;48.208;11.174;2023-03-15T17:31:53;3.80;;;2.77;;
6177;SDS011;3122;48.208;11.174;2023-03-15T17:36:54;13.37;;;6.20;;
6177;SDS011;3122;48.208;11.174;2023-03-15T17:41:54;4.20;;;3.43;;
6177;SDS011;3122;48.208;11.174;2023-03-15T17:46:55;4.30;;;2.97;;
6177;SDS011;3122;48.208;11.174;2023-03-15T17:51:56;6.03;;;3.30;;
6177;SDS011;3122;48.208;11.174;2023-03-15T17:56:56;5.73;;;4.30;;
6177;SDS011;3122;48.208;11.174;2023-03-15T18:01:58;6.20;;;4.03;;
6177;SDS011;3122;48.208;11.174;2023-03-15T18:06:58;7.73;;;3.70;;
6177;SDS011;3122;48.208;11.174;2023-03-15T18:11:59;13.87;;;6.20;;
6177;SDS011;3122;48.208;11.174;2023-03-15T18:17:01;9.70;;;5.70;;
6177;SDS011;3122;48.208;11.174;2023-03-15T18:22:01;11.30;;;4.90;;
6177;SDS011;3122;48.208;11.174;2023-03-15T18:27:02;6.33;;;3.10;;
6177;SDS011;3122;48.208;11.174;2023-03-15T18:32:03;9.87;;;5.97;;
6177;SDS011;3122;48.208;11.174;2023-03-15T18:37:03;7.33;;;3.50;;
6177;SDS011;3122;48.208;11.174;2023-03-15T18:42:04;4.10;;;2.77;;
6177;SDS011;3122;48.208;11.174;2023-03-15T18:47:05;4.77;;;3.10;;
6177;SDS011;3122;48.208;11.174;2023-03-15T18:52:05;3.33;;;2.77;;
6177;SDS011;3122;48.208;11.174;2023-03-15T18:57:06;5.50;;;2.80;;
6177;SDS011;3122;48.208;11.174;2023-03-15T19:02:07;6.93;;;3.60;;
6177;SDS011;3122;48.208;11.174;2023-03-15T19:07:08;3.40;;;3.10;;
6177;SDS011;3122;48.208;11.174;2023-03-15T19:12:09;3.60;;;3.30;;
6177;SDS011;3122;48.208;11.174;2023-03-15T19:17:10;11.40;;;5.50;;
6177;SDS011;3122;48.208;11.174;2023-03-15T19:22:10;21.07;;;7.47;;
6177;SDS011;3122;48.208;11.174;2023-03-15T19:27:11;16.60;;;8.90;;
6177;SDS011;3122;48.208;11.174;2023-03-15T19:32:11;22.23;;;9.97;;
6177;SDS011;3122;48.208;11.174;2023-03-15T19:37:12;15.43;;;7.00;;
6177;SDS011;3122;48.208;11.174;2023-03-15T19:42:13;7.47;;;4.13;;
6177;SDS011;3122;48.208;11.174;2023-03-15T19:47:14;4.63;;;3.50;;
6177;SDS011;3122;48.208;11.174;2023-03-15T19:52:14;4.70;;;3.37;;
6177;SDS011;3122;48.208;11.174;2023-03-15T19:57:15;4.33;;;2.57;;
6177;SDS011;3122;48.208;11.174;2023-03-15T20:02:15;3.17;;;2.87;;
6177;SDS011;3122;48.208;11.174;2023-03-15T20:07:16;5.43;;;3.43;;
6177;SDS011;3122;48.208;11.174;2023-03-15T20:12:17;3.77;;;3.37;;
6177;SDS011;3122;48.208;11.174;2023-03-15T20:17:17;7.97;;;4.87;;
6177;SDS011;3122;48.208;11.174;2023-03-15T20:22:19;4.57;;;3.03;;
6177;SDS011;3122;48.208;11.174;2023-03-15T20:27:20;4.47;;;3.67;;
6177;SDS011;3122;48.208;11.174;2023-03-15T20:32:21;3.40;;;2.90;;
6177;SDS011;3122;48.208;11.174;2023-03-15T20:37:22;5.00;;;3.80;;
6177;SDS011;3122;48.208;11.174;2023-03-15T20:42:23;4.60;;;3.83;;
6177;SDS011;3122;48.208;11.174;2023-03-15T20:47:24;3.30;;;3.00;;
6177;SDS011;3122;48.208;11.174;2023-03-15T20:52:25;5.00;;;3.13;;
6177;SDS011;3122;48.208;11.174;2023-03-15T20:57:25;4.57;;;3.40;;
6177;SDS011;3122;48.208;11.174;2023-03-15T21:02:26;7.37;;;4.93;;
6177;SDS011;3122;48.208;11.174;2023-03-15T21:07:26;7.20;;;4.60;;
6177;SDS011;3122;48.208;11.174;2023-03-15T21:12:27;10.87;;;5.23;;
6177;SDS011;3122;48.208;11.174;2023-03-15T21:17:27;3.77;;;3.47;;
6177;SDS011;3122;48.208;11.174;2023-03-15T21:22:28;5.70;;;3.20;;
6177;SDS011;3122;48.208;11.174;2023-03-15T21:27:29;3.60;;;3.30;;
6177;SDS011;3122;48.208;11.174;2023-03-15T21:32:29;8.30;;;5.10;;
6177;SDS011;3122;48.208;11.174;2023-03-15T21:37:30;4.17;;;3.30;;
6177;SDS011;3122;48.208;11.174;2023-03-15T21:42:31;3.07;;;2.87;;
6177;SDS011;3122;48.208;11.174;2023-03-15T21:47:32;4.60;;;3.50;;
6177;SDS011;3122;48.208;11.174;2023-03-15T21:52:33;9.10;;;6.50;;
6177;SDS011;3122;48.208;11.174;2023-03-15T21:57:34;6.43;;;4.17;;
6177;SDS011;3122;48.208;11.174;2023-03-15T22:02:34;4.67;;;3.50;;
6177;SDS011;3122;48.208;11.174;2023-03-15T22:07:35;13.50;;;9.17;;
6177;SDS011;3122;48.208;11.174;2023-03-15T22:12:36;4.90;;;4.30;;
6177;SDS011;3122;48.208;11.174;2023-03-15T22:17:36;5.20;;;4.60;;
6177;SDS011;3122;48.208;11.174;2023-03-15T22:22:37;4.80;;;4.03;;
6177;SDS011;3122;48.208;11.174;2023-03-15T22:27:38;4.37;;;3.83;;
6177;SDS011;3122;48.208;11.174;2023-03-15T22:32:42;5.90;;;3.23;;
6177;SDS011;3122;48.208;11.174;2023-03-15T22:37:43;3.40;;;3.10;;
6177;SDS011;3122;48.208;11.174;2023-03-15T22:42:43;3.00;;;2.80;;
6177;SDS011;3122;48.208;11.174;2023-03-15T22:47:46;3.10;;;2.80;;
6177;SDS011;3122;48.208;11.174;2023-03-15T22:52:47;2.83;;;2.63;;
6177;SDS011;3122;48.208;11.174;2023-03-15T22:57:50;4.20;;;3.30;;
6177;SDS011;3122;48.208;11.174;2023-03-15T23:02:52;4.37;;;3.37;;
6177;SDS011;3122;48.208;11.174;2023-03-15T23:07:53;3.47;;;3.17;;
6177;SDS011;3122;48.208;11.174;2023-03-15T23:12:53;5.00;;;3.70;;
6177;SDS011;3122;48.208;11.174;2023-03-15T23:17:54;5.43;;;3.93;;
6177;SDS011;3122;48.208;11.174;2023-03-15T23:22:56;6.93;;;4.47;;
6177;SDS011;3122;48.208;11.174;2023-03-15T23:27:56;5.33;;;3.80;;
6177;SDS011;3122;48.208;11.174;2023-03-15T23:32:57;5.03;;;4.33;;
6177;SDS011;3122;48.208;11.174;2023-03-15T23:37:58;5.30;;;4.33;;
6177;SDS011;3122;48.208;11.174;2023-03-15T23:42:59;5.13;;;3.80;;
6177;SDS011;3122;48.208;11.174;2023-03-15T23:48:00;5.03;;;3.90;;
6177;SDS011;3122;48.208;11.174;2023-03-15T23:53:04;4.27;;;3.70;;
6177;SDS011;3122;48.208;11.174;2023-03-15T23:58:05;4.20;;;3.57;;
